Time;durP1;ratioP1;P1;durP2;ratioP2;P2;SDS_P1;SDS_P2;PMS_P1;PMS_P2;Temp;Humidity;BMP_temperature;BMP_pressure;BME280_temperature;BME280_humidity;BME280_pressure;Samples;Min_cycle;Max_cycle;Signal;HPM_P1;HPM_P2
2020/12/01 00:00:48;;;;;;;4.80;1.50;;;;;;;7.75;100.00;102348.95;1729674;81;934670;-79
2020/12/01 00:03:18;;;;;;;6.37;1.70;;;;;;;7.79;100.00;102355.70;1718424;81;934740;-78
2020/12/01 00:05:48;;;;;;;4.83;1.67;;;;;;;7.76;100.00;102354.80;1724824;82;934524;-79
2020/12/01 00:08:18;;;;;;;5.63;1.70;;;;;;;7.66;100.00;102362.77;1716470;81;934576;-78
2020/12/01 00:10:47;;;;;;;7.40;1.83;;;;;;;7.67;100.00;102358.40;1727964;81;934714;-79
2020/12/01 00:13:17;;;;;;;6.27;2.30;;;;;;;7.14;100.00;102372.44;1716670;81;934662;-78
2020/12/01 00:15:47;;;;;;;8.43;2.40;;;;;;;7.14;100.00;102372.44;1728040;82;934510;-79
2020/12/01 00:18:18;;;;;;;5.72;1.62;;;;;;;7.56;100.00;102370.77;1719547;81;934599;-79
2020/12/01 00:20:48;;;;;;;7.53;2.13;;;;;;;7.47;100.00;102360.53;1735469;80;934567;-79
2020/12/01 00:23:18;;;;;;;3.33;1.30;;;;;;;7.47;100.00;102363.83;1724606;81;934598;-79
2020/12/01 00:25:48;;;;;;;3.63;1.30;;;;;;;7.48;100.00;102368.30;1736002;81;934543;-79
2020/12/01 00:28:18;;;;;;;6.93;1.67;;;;;;;7.49;100.00;102362.52;1724517;81;934585;-79
2020/12/01 00:30:48;;;;;;;5.87;1.40;;;;;;;7.52;100.00;102370.91;1735904;81;934573;-80
2020/12/01 00:33:18;;;;;;;6.60;1.83;;;;;;;7.39;100.00;102371.89;1724463;81;934631;-79
2020/12/01 00:35:48;;;;;;;7.40;1.90;;;;;;;7.42;100.00;102374.19;1736166;81;934803;-79
2020/12/01 00:38:20;;;;;;;5.40;1.50;;;;;;;7.49;100.00;102377.72;1724545;81;934713;-79
2020/12/01 00:40:50;;;;;;;10.90;2.15;;;;;;;7.44;100.00;102372.06;1735996;81;934586;-80
2020/12/01 00:43:20;;;;;;;6.20;1.87;;;;;;;7.36;100.00;102372.88;1724542;81;936626;-79
2020/12/01 00:45:50;;;;;;;8.78;1.92;;;;;;;7.42;100.00;102371.95;1729390;81;934635;-79
2020/12/01 00:48:20;;;;;;;7.93;2.03;;;;;;;7.38;100.00;102373.48;1718031;81;934612;-80
2020/12/01 00:50:50;;;;;;;5.17;1.80;;;;;;;7.31;100.00;102377.17;1729520;81;934855;-79
2020/12/01 00:53:20;;;;;;;10.13;2.03;;;;;;;7.28;100.00;102384.52;1718313;81;934679;-78
2020/12/01 00:55:50;;;;;;;7.93;2.47;;;;;;;7.00;100.00;102373.08;1729527;81;937082;-79
2020/12/01 00:58:20;;;;;;;7.30;1.60;;;;;;;7.09;100.00;102380.02;1718115;81;934607;-79
2020/12/01 01:00:50;;;;;;;4.60;1.07;;;;;;;7.03;100.00;102385.05;1729594;81;934701;-79
2020/12/01 01:03:20;;;;;;;5.37;1.23;;;;;;;6.96;100.00;102384.80;1718320;81;934552;-79
2020/12/01 01:05:50;;;;;;;7.00;1.50;;;;;;;7.03;100.00;102388.34;1729435;81;934821;-79
2020/12/01 01:08:20;;;;;;;3.83;1.50;;;;;;;7.04;100.00;102391.42;1716376;81;934644;-79
2020/12/01 01:10:50;;;;;;;3.90;1.57;;;;;;;6.74;100.00;102389.30;1705177;82;933999;-79
2020/12/01 01:13:20;;;;;;;7.67;2.00;;;;;;;6.81;100.00;102396.14;1718273;81;934553;-79
2020/12/01 01:15:50;;;;;;;5.47;1.80;;;;;;;6.78;100.00;102391.08;1729341;81;934557;-79
2020/12/01 01:18:20;;;;;;;5.20;1.40;;;;;;;6.75;100.00;102394.29;1718115;81;934840;-79
2020/12/01 01:20:50;;;;;;;6.87;1.90;;;;;;;6.62;100.00;102397.13;1729584;81;934823;-79
2020/12/01 01:23:19;;;;;;;4.67;1.63;;;;;;;6.65;100.00;102401.67;1718176;81;934541;-78
2020/12/01 01:25:49;;;;;;;5.53;1.47;;;;;;;6.62;100.00;102406.27;1729509;81;934583;-78
2020/12/01 01:28:19;;;;;;;7.40;1.33;;;;;;;6.59;100.00;102406.69;1717954;81;934580;-79
2020/12/01 01:30:49;;;;;;;6.63;1.47;;;;;;;6.67;100.00;102406.45;1729575;81;934866;-79
2020/12/01 01:33:19;;;;;;;8.47;1.63;;;;;;;6.45;100.00;102406.46;1718164;81;934592;-79
2020/12/01 01:35:49;;;;;;;4.10;1.47;;;;;;;6.54;100.00;102413.95;1727345;81;934836;-79
2020/12/01 01:38:19;;;;;;;6.33;1.40;;;;;;;6.62;100.00;102414.55;1715560;81;934781;-79
2020/12/01 01:40:49;;;;;;;3.67;1.50;;;;;;;6.52;100.00;102413.31;1727937;82;934589;-79
2020/12/01 01:43:19;;;;;;;5.80;1.67;;;;;;;6.65;100.00;102407.72;1715498;82;934780;-79
2020/12/01 01:45:50;;;;;;;6.40;1.47;;;;;;;6.68;100.00;102408.12;1703896;82;934537;-78
2020/12/01 01:48:24;;;;;;;3.60;1.37;;;;;;;6.69;100.00;102410.35;1690049;82;934581;-79
2020/12/01 01:51:02;;;;;;;4.70;1.60;;;;;;;6.58;100.00;102415.21;1729422;81;934589;-79
2020/12/01 01:53:35;;;;;;;7.17;1.98;;;;;;;6.55;100.00;102412.34;1718309;81;934558;-79
2020/12/01 01:56:07;;;;;;;3.73;1.17;;;;;;;6.52;100.00;102414.70;1729581;81;932686;-80
2020/12/01 01:58:40;;;;;;;9.63;1.80;;;;;;;6.49;100.00;102413.23;1708337;82;934817;-79
2020/12/01 02:01:13;;;;;;;6.97;1.67;;;;;;;6.43;100.00;102421.00;1719520;82;932635;-79
2020/12/01 02:03:45;;;;;;;4.80;1.20;;;;;;;6.33;100.00;102431.69;1719667;82;933440;-80
2020/12/01 02:06:21;;;;;;;6.37;1.30;;;;;;;6.37;100.00;102428.23;1719551;82;932802;-80
2020/12/01 02:08:54;;;;;;;4.23;1.47;;;;;;;6.53;100.00;102426.91;1719477;82;934641;-80
2020/12/01 02:11:25;;;;;;;6.53;2.43;;;;;;;6.44;100.00;102439.80;1708405;82;933440;-80
2020/12/01 02:14:01;;;;;;;5.23;1.93;;;;;;;6.39;100.00;102432.17;1701105;82;934580;-80
2020/12/01 02:16:32;;;;;;;7.42;1.30;;;;;;;6.35;100.00;102434.52;1716699;81;934704;-79
2020/12/01 02:19:02;;;;;;;3.97;1.50;;;;;;;6.35;100.00;102434.52;1729511;81;934530;-79
2020/12/01 02:21:35;;;;;;;4.83;1.47;;;;;;;6.35;100.00;102440.05;1718220;81;934470;-79
2020/12/01 02:24:09;;;;;;;3.63;1.27;;;;;;;6.38;100.00;102447.03;1729564;81;932754;-79
2020/12/01 02:26:39;;;;;;;4.77;1.47;;;;;;;6.38;100.00;102448.41;1718176;81;934694;-79
2020/12/01 02:29:12;;;;;;;6.30;1.43;;;;;;;6.26;100.00;102448.25;1729492;81;932687;-78
2020/12/01 02:31:44;;;;;;;5.37;1.27;;;;;;;6.27;100.00;102447.72;1729434;81;934574;-78
2020/12/01 02:34:17;;;;;;;3.47;1.20;;;;;;;6.31;100.00;102451.21;1729405;81;932702;-79
2020/12/01 02:36:48;;;;;;;5.70;1.40;;;;;;;6.32;100.00;102456.20;1729502;81;934641;-79
2020/12/01 02:39:22;;;;;;;4.97;1.50;;;;;;;6.42;100.00;102451.61;1718129;81;934602;-79
2020/12/01 02:41:52;;;;;;;7.37;1.60;;;;;;;6.40;100.00;102451.81;1729477;81;934552;-80
2020/12/01 02:44:22;;;;;;;3.70;1.30;;;;;;;6.39;100.00;102457.02;1718141;81;934614;-79
2020/12/01 02:46:52;;;;;;;5.40;1.20;;;;;;;6.27;100.00;102454.09;1729473;81;934551;-78
2020/12/01 02:49:22;;;;;;;4.37;1.25;;;;;;;6.28;100.00;102453.03;1718153;81;934518;-78
2020/12/01 02:51:52;;;;;;;5.27;1.20;;;;;;;6.37;100.00;102453.64;1729364;81;934583;-78
2020/12/01 02:54:22;;;;;;;4.00;1.20;;;;;;;6.28;100.00;102450.27;1718131;81;934735;-78
2020/12/01 02:56:51;;;;;;;5.27;1.20;;;;;;;6.30;100.00;102456.94;1729510;81;934653;-78
2020/12/01 02:59:21;;;;;;;5.55;1.32;;;;;;;6.24;100.00;102454.53;1717965;81;934504;-78
2020/12/01 03:01:51;;;;;;;5.10;1.57;;;;;;;6.27;100.00;102453.23;1729444;81;934565;-78
2020/12/01 03:04:21;;;;;;;6.43;1.83;;;;;;;6.29;100.00;102456.08;1718094;81;934577;-78
2020/12/01 03:06:51;;;;;;;2.60;1.47;;;;;;;6.29;100.00;102451.94;1729425;81;934589;-79
2020/12/01 03:09:21;;;;;;;3.40;1.40;;;;;;;6.27;100.00;102456.00;1718187;81;934590;-79
2020/12/01 03:11:51;;;;;;;4.53;1.40;;;;;;;6.26;100.00;102457.05;1729359;81;934767;-79
2020/12/01 03:14:22;;;;;;;4.50;1.90;;;;;;;6.24;100.00;102460.58;1718038;81;934768;-79
2020/12/01 03:16:53;;;;;;;5.53;1.40;;;;;;;6.23;100.00;102460.27;1729447;81;934723;-79
2020/12/01 03:19:22;;;;;;;5.87;1.00;;;;;;;6.19;100.00;102461.23;1718395;81;934430;-79
2020/12/01 03:21:52;;;;;;;4.28;1.30;;;;;;;6.14;100.00;102456.04;1729439;81;934981;-79
2020/12/01 03:24:22;;;;;;;2.15;1.20;;;;;;;6.21;100.00;102449.95;1718140;81;934477;-79
2020/12/01 03:26:54;;;;;;;2.63;1.10;;;;;;;6.21;100.00;102456.86;1728119;81;934558;-78
2020/12/01 03:29:23;;;;;;;2.80;1.30;;;;;;;6.17;100.00;102455.06;1718162;81;934728;-79
2020/12/01 03:31:53;;;;;;;3.83;1.10;;;;;;;6.20;100.00;102449.14;1729429;81;934602;-79
2020/12/01 03:34:23;;;;;;;3.70;1.30;;;;;;;6.22;100.00;102446.99;1718183;81;934609;-78
2020/12/01 03:36:53;;;;;;;2.83;1.00;;;;;;;6.15;100.00;102446.18;1729478;81;933656;-79
2020/12/01 03:39:23;;;;;;;3.25;1.10;;;;;;;6.16;100.00;102451.98;1718144;81;934654;-78
2020/12/01 03:41:53;;;;;;;4.07;1.07;;;;;;;6.10;100.00;102451.49;1729472;81;934493;-79
2020/12/01 03:44:23;;;;;;;4.90;1.37;;;;;;;6.10;100.00;102452.02;1718065;81;934579;-79
2020/12/01 03:46:53;;;;;;;5.07;1.60;;;;;;;6.14;100.00;102460.18;1729586;81;934607;-79
2020/12/01 03:49:23;;;;;;;4.40;1.40;;;;;;;6.15;100.00;102466.88;1718277;81;934639;-79
2020/12/01 03:51:52;;;;;;;4.13;1.30;;;;;;;6.03;100.00;102460.86;1729513;81;934568;-79
2020/12/01 03:54:22;;;;;;;3.73;1.40;;;;;;;6.05;100.00;102460.94;1718160;81;934492;-78
2020/12/01 03:56:52;;;;;;;2.37;0.87;;;;;;;6.15;100.00;102464.64;1729618;81;934918;-79
2020/12/01 03:59:23;;;;;;;4.72;1.22;;;;;;;6.08;100.00;102463.26;1718202;81;934601;-79
2020/12/01 04:01:53;;;;;;;6.00;1.90;;;;;;;6.00;100.00;102470.39;1729465;81;934506;-79
2020/12/01 04:04:28;;;;;;;8.00;1.60;;;;;;;5.89;100.00;102466.40;1718342;81;934695;-79
2020/12/01 04:06:55;;;;;;;7.37;1.27;;;;;;;5.91;100.00;102461.50;1728776;81;934773;-79
2020/12/01 04:09:25;;;;;;;4.33;1.17;;;;;;;5.93;100.00;102463.52;1718202;81;934680;-79
2020/12/01 04:11:55;;;;;;;4.00;1.27;;;;;;;5.96;100.00;102474.64;1729456;81;934600;-79
2020/12/01 04:14:25;;;;;;;4.97;1.30;;;;;;;6.00;100.00;102472.30;1718303;81;934483;-79
2020/12/01 04:16:55;;;;;;;5.43;1.40;;;;;;;6.00;100.00;102480.05;1729505;81;934571;-79
2020/12/01 04:19:24;;;;;;;5.08;1.35;;;;;;;5.91;100.00;102479.95;1718178;81;934581;-79
2020/12/01 04:21:54;;;;;;;4.97;1.50;;;;;;;5.88;100.00;102474.34;1729443;81;934521;-79
2020/12/01 04:24:24;;;;;;;3.87;1.07;;;;;;;5.85;100.00;102479.42;1718030;81;934587;-79
2020/12/01 04:26:54;;;;;;;5.93;1.30;;;;;;;5.88;100.00;102482.62;1729457;81;934580;-79
2020/12/01 04:29:24;;;;;;;2.70;1.12;;;;;;;5.91;100.00;102494.59;1718154;81;934611;-79
2020/12/01 04:31:54;;;;;;;3.53;1.20;;;;;;;5.91;100.00;102491.83;1729491;81;934677;-79
2020/12/01 04:34:23;;;;;;;5.90;1.45;;;;;;;5.94;100.00;102488.67;1718140;81;934637;-79
2020/12/01 04:36:53;;;;;;;5.83;1.50;;;;;;;5.88;100.00;102497.79;1729554;81;934622;-79
2020/12/01 04:39:23;;;;;;;4.53;1.33;;;;;;;5.84;100.00;102499.25;1718331;81;934504;-79
2020/12/01 04:41:54;;;;;;;4.70;1.67;;;;;;;5.79;100.00;102496.28;1729450;81;934711;-79
2020/12/01 04:44:28;;;;;;;3.50;1.15;;;;;;;5.76;100.00;102502.23;1718178;81;934564;-79
2020/12/01 04:47:01;;;;;;;3.20;1.27;;;;;;;5.72;100.00;102497.34;1729449;81;934641;-79
2020/12/01 04:49:33;;;;;;;5.33;1.20;;;;;;;5.72;100.00;102497.34;1718270;81;934571;-79
2020/12/01 04:52:16;;;;;;;5.13;1.00;;;;;;;5.68;100.00;102499.69;1701247;82;932662;-79
2020/12/01 04:55:19;;;;;;;4.67;1.33;;;;;;;5.69;100.00;102503.30;1700738;82;934639;-79
2020/12/01 04:58:05;;;;;;;8.30;1.50;;;;;;;5.66;100.00;102506.46;1700455;82;934956;-79
2020/12/01 05:00:38;;;;;;;3.02;1.00;;;;;;;5.64;100.00;102494.81;1678496;82;934752;-79
2020/12/01 05:03:25;;;;;;;4.53;1.43;;;;;;;5.66;100.00;102512.83;1701119;82;932646;-79
2020/12/01 05:06:10;;;;;;;3.57;1.00;;;;;;;5.58;100.00;102512.19;1729508;81;934500;-79
2020/12/01 05:08:46;;;;;;;3.83;1.30;;;;;;;5.53;100.00;102514.20;1689760;82;934563;-79
2020/12/01 05:11:45;;;;;;;4.53;1.13;;;;;;;5.62;100.00;102517.59;1729509;81;932596;-80
2020/12/01 05:14:20;;;;;;;3.85;1.17;;;;;;;5.66;100.00;102519.72;1729342;81;932592;-79
2020/12/01 05:17:21;;;;;;;7.63;1.30;;;;;;;5.57;100.00;102515.47;1729492;81;934489;-80
2020/12/01 05:19:51;;;;;;;5.23;0.97;;;;;;;5.57;100.00;102518.23;1699537;82;934533;-79
2020/12/01 05:22:23;;;;;;;4.80;1.50;;;;;;;5.55;100.00;102521.74;1690033;82;934590;-79
2020/12/01 05:24:54;;;;;;;2.57;1.23;;;;;;;5.53;100.00;102513.34;1701128;82;934842;-79
2020/12/01 05:27:29;;;;;;;4.12;1.07;;;;;;;5.52;100.00;102529.59;1718092;81;934573;-78
2020/12/01 05:30:04;;;;;;;3.07;1.23;;;;;;;5.48;100.00;102534.65;1729432;81;934625;-79
2020/12/01 05:32:38;;;;;;;3.87;1.05;;;;;;;5.54;100.00;102535.20;1718318;81;934533;-78
2020/12/01 05:35:15;;;;;;;4.00;1.50;;;;;;;5.51;100.00;102542.52;1729504;81;932657;-78
2020/12/01 05:38:18;;;;;;;3.90;1.17;;;;;;;5.55;100.00;102537.43;1729438;81;934582;-79
2020/12/01 05:40:54;;;;;;;1.70;1.30;;;;;;;5.62;100.00;102542.41;1720033;81;934604;-79
2020/12/01 05:43:31;;;;;;;3.15;1.20;;;;;;;5.56;100.00;102541.89;1718173;81;934712;-78
2020/12/01 05:46:15;;;;;;;4.27;1.33;;;;;;;5.56;100.00;102539.13;1729323;81;934531;-78
2020/12/01 05:49:01;;;;;;;5.37;1.13;;;;;;;5.54;100.00;102546.22;1729425;81;934782;-79
2020/12/01 05:51:37;;;;;;;5.35;1.37;;;;;;;5.48;100.00;102543.77;1718322;80;934604;-78
2020/12/01 05:54:12;;;;;;;6.33;1.65;;;;;;;5.48;100.00;102546.52;1729533;81;932677;-79
2020/12/01 05:56:51;;;;;;;3.00;0.93;;;;;;;5.50;100.00;102543.56;1729379;81;934788;-78
2020/12/01 05:59:23;;;;;;;5.37;1.17;;;;;;;5.43;100.00;102539.41;1718239;81;934571;-79
2020/12/01 06:01:57;;;;;;;2.03;1.00;;;;;;;5.36;100.00;102550.11;1729519;81;934638;-79
2020/12/01 06:04:28;;;;;;;6.28;1.40;;;;;;;5.39;100.00;102551.09;1689983;82;934521;-79
2020/12/01 06:07:17;;;;;;;4.62;1.20;;;;;;;5.34;100.00;102553.62;1730902;81;934604;-79
2020/12/01 06:09:57;;;;;;;3.73;1.67;;;;;;;5.38;100.00;102561.78;1728002;81;934594;-79
2020/12/01 06:12:40;;;;;;;5.00;1.12;;;;;;;5.30;100.00;102557.33;1717805;81;934741;-79
2020/12/01 06:15:13;;;;;;;6.10;1.37;;;;;;;5.32;100.00;102566.22;1729072;81;932625;-79
2020/12/01 06:17:47;;;;;;;4.60;1.37;;;;;;;5.29;100.00;102569.92;1729303;81;934580;-78
2020/12/01 06:20:22;;;;;;;3.50;1.00;;;;;;;5.17;100.00;102569.69;1726485;81;934724;-78
2020/12/01 06:23:34;;;;;;;3.80;1.13;;;;;;;5.04;100.00;102540.20;1724649;81;933659;-79
2020/12/01 06:26:38;;;;;;;5.40;1.53;;;;;;;5.24;100.00;102563.66;1727996;81;932723;-78
2020/12/01 06:29:55;;;;;;;5.40;1.20;;;;;;;5.18;100.00;102569.17;1727004;81;932696;-79
2020/12/01 06:33:07;;;;;;;2.63;1.30;;;;;;;5.19;100.00;102566.19;1652713;84;934652;-78
2020/12/01 06:36:23;;;;;;;6.70;1.53;;;;;;;5.24;100.00;102566.94;1652516;85;934608;-79
2020/12/01 06:38:57;;;;;;;4.37;0.97;;;;;;;5.16;100.00;102576.77;1654470;85;934679;-80
2020/12/01 06:41:28;;;;;;;5.55;1.00;;;;;;;5.15;100.00;102580.58;1634777;85;934724;-79
2020/12/01 06:44:01;;;;;;;3.17;1.03;;;;;;;5.22;100.00;102584.22;1646312;86;935073;-80
2020/12/01 06:46:43;;;;;;;4.50;1.65;;;;;;;5.14;100.00;102589.36;1635564;86;934571;-79
2020/12/01 06:49:16;;;;;;;7.93;1.40;;;;;;;5.18;100.00;102593.96;1646250;86;932713;-79
2020/12/01 06:51:51;;;;;;;5.57;1.40;;;;;;;5.18;100.00;102591.20;1646261;86;934788;-81
2020/12/01 06:54:22;;;;;;;4.28;0.98;;;;;;;5.09;100.00;102598.80;1635379;86;934647;-81
2020/12/01 06:57:01;;;;;;;5.60;1.30;;;;;;;5.09;100.00;102598.80;1646406;86;934585;-78
2020/12/01 06:59:31;;;;;;;4.22;1.20;;;;;;;4.84;100.00;102601.74;1635518;86;934671;-78
2020/12/01 07:02:16;;;;;;;5.80;1.30;;;;;;;5.06;100.00;102600.57;1646227;86;934557;-79
2020/12/01 07:04:46;;;;;;;5.87;1.43;;;;;;;4.94;100.00;102603.08;1646310;86;933535;-80
2020/12/01 07:07:24;;;;;;;4.40;1.40;;;;;;;5.06;100.00;102607.45;1682045;82;932808;-81
2020/12/01 07:09:54;;;;;;;4.03;1.23;;;;;;;4.96;100.00;102613.89;1719409;82;934557;-82
2020/12/01 07:12:34;;;;;;;7.22;1.40;;;;;;;4.87;100.00;102615.12;1708320;80;934611;-83
2020/12/01 07:15:09;;;;;;;2.07;0.93;;;;;;;4.95;100.00;102621.30;1719667;82;932590;-80
2020/12/01 07:17:59;;;;;;;5.80;1.33;;;;;;;4.95;100.00;102621.30;1708036;82;933500;-83
2020/12/01 07:20:54;;;;;;;2.63;1.10;;;;;;;4.88;100.00;102619.02;1708978;82;934631;-85
2020/12/01 07:23:29;;;;;;;5.57;1.30;;;;;;;4.93;100.00;102622.02;1669421;82;934552;-85
2020/12/01 07:26:18;;;;;;;4.70;1.20;;;;;;;4.96;100.00;102623.53;1729310;81;934717;-81
2020/12/01 07:28:57;;;;;;;4.83;1.60;;;;;;;4.96;100.00;102629.04;1700971;82;934498;-81
2020/12/01 07:31:30;;;;;;;7.80;1.37;;;;;;;5.01;100.00;102630.63;1689701;82;934661;-81
2020/12/01 07:34:03;;;;;;;3.07;1.20;;;;;;;4.84;100.00;102633.41;1730936;81;935095;-81
2020/12/01 07:36:41;;;;;;;2.12;1.20;;;;;;;4.74;100.00;102633.80;1708354;82;934582;-81
2020/12/01 07:39:16;;;;;;;2.57;1.23;;;;;;;4.73;100.00;102643.10;1701087;82;932810;-78
2020/12/01 07:41:55;;;;;;;6.73;1.60;;;;;;;4.77;100.00;102644.92;1728170;81;934773;-82
2020/12/01 07:44:27;;;;;;;5.15;1.25;;;;;;;4.82;100.00;102654.80;1718107;81;934599;-82
2020/12/01 07:47:07;;;;;;;6.40;1.37;;;;;;;4.72;100.00;102646.05;1729710;81;934469;-81
2020/12/01 07:49:38;;;;;;;5.80;1.60;;;;;;;4.84;100.00;102647.17;1718064;81;934691;-78
2020/12/01 07:52:21;;;;;;;4.03;1.50;;;;;;;4.77;100.00;102652.66;1729296;81;932642;-80
2020/12/01 07:54:54;;;;;;;5.43;1.50;;;;;;;4.75;100.00;102645.66;1729403;81;934549;-77
2020/12/01 07:57:24;;;;;;;6.63;1.53;;;;;;;4.69;100.00;102651.44;1717947;81;933485;-78
2020/12/01 07:59:54;;;;;;;6.97;1.70;;;;;;;4.73;100.00;102660.99;1729324;81;934740;-80
2020/12/01 08:02:29;;;;;;;4.40;1.40;;;;;;;4.85;100.00;102661.27;1718149;81;933443;-80
2020/12/01 08:05:06;;;;;;;5.00;1.10;;;;;;;4.77;100.00;102655.92;1729584;81;934578;-78
2020/12/01 08:07:36;;;;;;;4.67;1.57;;;;;;;4.81;100.00;102662.73;1718252;81;934676;-78
2020/12/01 08:10:08;;;;;;;6.73;1.63;;;;;;;4.93;100.00;102667.98;1729446;81;932594;-78
2020/12/01 08:12:41;;;;;;;4.30;1.50;;;;;;;4.78;100.00;102672.26;1717914;81;933633;-78
2020/12/01 08:15:16;;;;;;;5.13;1.57;;;;;;;4.86;100.00;102675.36;1729590;81;932631;-78
2020/12/01 08:17:46;;;;;;;7.07;1.60;;;;;;;4.87;100.00;102675.70;1729400;81;934889;-78
2020/12/01 08:20:19;;;;;;;4.33;1.40;;;;;;;4.91;100.00;102678.36;1729443;81;932571;-77
2020/12/01 08:22:58;;;;;;;4.47;1.50;;;;;;;5.03;100.00;102678.11;1729509;81;934552;-77
2020/12/01 08:25:31;;;;;;;2.80;1.40;;;;;;;5.04;100.00;102682.05;1718108;81;934761;-77
2020/12/01 08:28:19;;;;;;;7.07;1.67;;;;;;;4.99;100.00;102679.57;1729556;81;934664;-78
2020/12/01 08:31:00;;;;;;;6.00;1.77;;;;;;;5.07;100.00;102672.52;1701174;82;934511;-78
2020/12/01 08:33:47;;;;;;;5.97;2.00;;;;;;;5.04;100.00;102672.41;1690139;82;934569;-80
2020/12/01 08:36:26;;;;;;;5.00;1.70;;;;;;;5.07;100.00;102671.13;1695072;82;934690;-78
2020/12/01 08:39:16;;;;;;;6.67;1.63;;;;;;;5.07;100.00;102665.62;1729658;81;933449;-78
2020/12/01 08:41:50;;;;;;;5.13;1.50;;;;;;;5.19;100.00;102681.03;1735535;81;934578;-79
2020/12/01 08:44:29;;;;;;;5.37;1.57;;;;;;;5.33;100.00;102682.27;1724445;81;934531;-79
2020/12/01 08:47:01;;;;;;;5.43;1.40;;;;;;;5.32;100.00;102681.95;1735891;80;934626;-79
2020/12/01 08:49:41;;;;;;;2.90;1.50;;;;;;;5.36;100.00;102681.00;1718147;81;934725;-79
2020/12/01 08:52:34;;;;;;;2.47;1.27;;;;;;;5.38;100.00;102681.13;1729383;81;932615;-78
2020/12/01 08:55:32;;;;;;;4.50;1.70;;;;;;;5.36;100.00;102674.97;1729329;81;932616;-79
2020/12/01 08:58:07;;;;;;;3.83;1.53;;;;;;;5.40;100.00;102684.52;1717386;82;934638;-79
2020/12/01 09:00:37;;;;;;;4.97;1.70;;;;;;;5.47;100.00;102684.56;1689803;82;934502;-79
2020/12/01 09:03:16;;;;;;;3.40;1.27;;;;;;;5.54;100.00;102692.31;1701139;82;932642;-79
2020/12/01 09:05:50;;;;;;;5.57;1.70;;;;;;;5.63;100.00;102683.33;1700963;82;934567;-79
2020/12/01 09:08:42;;;;;;;5.10;1.47;;;;;;;5.64;100.00;102683.13;1717970;81;934478;-79
2020/12/01 09:11:41;;;;;;;6.80;1.60;;;;;;;5.79;100.00;102687.07;1729516;81;932899;-80
2020/12/01 09:14:12;;;;;;;7.83;2.63;;;;;;;5.93;100.00;102679.19;1699819;82;932834;-79
2020/12/01 09:16:50;;;;;;;4.77;1.33;;;;;;;5.94;100.00;102683.65;1689846;82;934582;-79
2020/12/01 09:19:46;;;;;;;4.55;1.50;;;;;;;5.98;100.00;102684.92;1725344;81;934596;-79
2020/12/01 09:22:09;;;;;;;3.27;1.42;;;;;;;6.06;100.00;102673.69;1744951;79;932740;-79
2020/12/01 09:24:40;;;;;;;5.30;1.23;;;;;;;6.14;100.00;102678.99;1724589;81;934574;-79
2020/12/01 09:27:13;;;;;;;5.57;1.50;;;;;;;6.14;100.00;102678.99;1735755;81;932669;-80
2020/12/01 09:29:48;;;;;;;5.13;1.37;;;;;;;6.28;100.00;102688.13;1735934;81;934576;-79
2020/12/01 09:32:20;;;;;;;7.73;1.53;;;;;;;6.40;100.00;102692.80;1724592;81;934503;-79
2020/12/01 09:34:52;;;;;;;4.57;1.43;;;;;;;6.37;100.00;102686.86;1735928;81;934557;-79
2020/12/01 09:37:22;;;;;;;8.90;1.60;;;;;;;6.46;100.00;102686.12;1724507;81;934766;-79
2020/12/01 09:39:52;;;;;;;5.60;1.33;;;;;;;6.45;100.00;102685.79;1735802;81;933410;-79
2020/12/01 09:42:27;;;;;;;4.47;1.70;;;;;;;6.65;100.00;102683.33;1724411;81;934580;-79
2020/12/01 09:45:20;;;;;;;2.77;1.40;;;;;;;6.66;100.00;102681.42;1735877;81;934522;-79
2020/12/01 09:47:53;;;;;;;5.50;1.60;;;;;;;6.73;100.00;102686.39;1735843;81;934581;-79
2020/12/01 09:50:25;;;;;;;4.72;1.10;;;;;;;6.80;100.00;102688.06;1724356;80;934732;-79
2020/12/01 09:53:08;;;;;;;6.93;1.60;;;;;;;6.91;100.00;102682.42;1735867;81;934504;-79
2020/12/01 09:55:50;;;;;;;5.77;1.27;;;;;;;7.00;100.00;102692.19;1724496;81;934539;-79
2020/12/01 10:04:53;;;;;;;4.50;1.17;;;;;;;7.19;100.00;102692.64;1704351;80;934850;-79
2020/12/01 10:09:51;;;;;;;4.27;1.40;;;;;;;7.28;100.00;102689.09;1735739;81;934655;-79
2020/12/01 10:27:17;;;;;;;3.80;1.43;;;;;;;7.54;100.00;102679.31;1724493;81;934630;-79
2020/12/01 10:33:53;;;;;;;4.77;1.40;;;;;;;7.47;100.00;102689.56;1724426;81;933434;-79
2020/12/01 10:35:12;;;;;;;6.03;1.43;;;;;;;7.47;100.00;102679.03;1734139;81;933392;-78
2020/12/01 10:37:42;;;;;;;9.43;1.90;;;;;;;7.54;100.00;102687.61;1735840;80;933323;-79
2020/12/01 10:40:11;;;;;;;5.20;1.90;;;;;;;7.59;100.00;102678.65;1735812;81;932340;-79
2020/12/01 10:42:41;;;;;;;6.70;1.60;;;;;;;7.54;100.00;102686.75;1735702;81;933437;-79
2020/12/01 10:45:11;;;;;;;6.43;1.37;;;;;;;7.53;100.00;102683.70;1728234;81;931552;-79
2020/12/01 10:47:41;;;;;;;4.20;1.43;;;;;;;7.46;100.00;102676.80;1735562;81;933811;-79
2020/12/01 10:50:12;;;;;;;10.53;2.57;;;;;;;7.54;100.00;102679.31;1735875;81;931457;-80
2020/12/01 10:52:42;;;;;;;6.97;1.60;;;;;;;7.54;100.00;102674.30;1735835;81;935472;-80
2020/12/01 10:55:15;;;;;;;7.43;1.80;;;;;;;7.56;100.00;102684.63;1735855;81;931392;-79
2020/12/01 10:57:45;;;;;;;7.50;1.70;;;;;;;7.58;100.00;102677.80;1735777;81;933437;-79
2020/12/01 11:00:16;;;;;;;5.70;1.93;;;;;;;7.64;100.00;102684.37;1735809;81;931448;-79
2020/12/01 11:02:46;;;;;;;4.77;1.50;;;;;;;7.82;100.00;102684.48;1735739;81;933282;-79
2020/12/01 11:05:19;;;;;;;7.80;2.43;;;;;;;7.74;100.00;102684.75;1735667;81;931571;-82
2020/12/01 11:07:49;;;;;;;8.80;1.93;;;;;;;7.74;100.00;102688.34;1735781;81;934953;-79
2020/12/01 11:10:19;;;;;;;6.23;1.87;;;;;;;7.59;100.00;102684.17;1724576;81;934575;-79
2020/12/01 11:12:50;;;;;;;4.13;1.83;;;;;;;7.59;100.00;102685.56;1735764;81;934675;-78
2020/12/01 11:15:21;;;;;;;5.47;1.50;;;;;;;7.47;100.00;102688.18;1724531;81;933524;-79
2020/12/01 11:17:51;;;;;;;6.00;2.03;;;;;;;7.60;100.00;102689.50;1735824;81;934612;-80
2020/12/01 11:20:21;;;;;;;5.87;1.37;;;;;;;7.54;100.00;102686.22;1724534;81;934639;-79
2020/12/01 11:22:52;;;;;;;4.23;1.40;;;;;;;7.71;100.00;102688.79;1735746;81;934594;-81
2020/12/01 11:25:22;;;;;;;5.50;1.50;;;;;;;7.58;100.00;102690.24;1724454;81;934580;-80
2020/12/01 11:27:52;;;;;;;4.70;1.70;;;;;;;7.74;100.00;102686.95;1735702;81;933535;-80
2020/12/01 11:30:24;;;;;;;3.10;1.45;;;;;;;7.64;100.00;102692.67;1724354;81;934746;-80
2020/12/01 11:32:54;;;;;;;4.10;1.57;;;;;;;7.79;100.00;102689.05;1735837;81;934703;-79
2020/12/01 11:35:26;;;;;;;5.07;1.37;;;;;;;7.83;100.00;102693.07;1724567;81;933561;-79
2020/12/01 11:37:56;;;;;;;6.60;1.53;;;;;;;7.78;100.00;102692.39;1735990;81;933590;-79
2020/12/01 11:40:26;;;;;;;4.92;1.55;;;;;;;7.79;100.00;102684.91;1724555;81;934322;-79
2020/12/01 11:42:56;;;;;;;5.80;1.60;;;;;;;7.79;100.00;102682.99;1735764;81;934802;-80
2020/12/01 11:45:26;;;;;;;5.22;2.22;;;;;;;7.81;100.00;102688.31;1724669;81;934615;-79
2020/12/01 11:47:56;;;;;;;4.47;1.40;;;;;;;7.93;100.00;102688.44;1735964;81;934569;-79
2020/12/01 11:50:25;;;;;;;8.93;1.72;;;;;;;7.94;100.00;102692.38;1724483;81;934646;-79
2020/12/01 11:52:55;;;;;;;4.30;1.37;;;;;;;7.94;100.00;102686.00;1735807;81;934490;-80
2020/12/01 11:55:25;;;;;;;6.15;1.60;;;;;;;8.12;100.00;102680.02;1724508;81;937660;-79
2020/12/01 11:57:55;;;;;;;4.80;1.60;;;;;;;8.21;100.00;102684.75;1735892;81;933509;-79
2020/12/01 12:00:29;;;;;;;7.03;1.90;;;;;;;8.27;100.00;102683.83;1724659;81;934784;-79
2020/12/01 12:02:59;;;;;;;6.53;1.80;;;;;;;8.20;100.00;102676.97;1735954;81;934707;-80
2020/12/01 12:05:29;;;;;;;5.20;1.55;;;;;;;8.24;100.00;102672.68;1724430;81;933463;-80
2020/12/01 12:07:59;;;;;;;7.20;1.75;;;;;;;8.23;100.00;102678.44;1735899;81;933520;-80
2020/12/01 12:10:29;;;;;;;7.63;1.60;;;;;;;8.23;100.00;102677.90;1724677;81;934731;-80
2020/12/01 12:13:00;;;;;;;4.23;1.60;;;;;;;8.32;100.00;102677.65;1735872;81;934572;-80
2020/12/01 12:15:30;;;;;;;6.55;1.85;;;;;;;8.36;100.00;102674.73;1724294;81;944683;-79